Rochester, NY (14602)

1:37 AM EDT on August 23, 2017 (GMT -0400)
South Wedge | | Change Station
Active Advisory: Beach Hazard Statement

Elev 525 ft 43.14 °N, 77.61 °W | Updated 26 seconds ago

Clear
Clear
59.7 °F
Feels Like 59.7 °F
N
0.0
Wind Variable Wind from South

Today
High -- | Low -- °F
--% Chance of Precip.
Yesterday
High -- | Low -- °F
Precip. -- in
Pressure 29.80 in
Visibility 10.0 miles
Clouds Few 9000 ft
Dew Point 56 °F
Humidity 88%
Rainfall 0.00 in
Snow Depth Not available.
6:25 AM 8:00 PM
Waxing Crescent, 3% visible
METAR KROC 230454Z 26007KT 10SM FEW090 17/14 A2980 RMK AO2 SLP089 T01720144 402940172 $
Pressure 29.80 in
Visibility 10.0 miles
Clouds Few 9000 ft
Dew Point 56 °F
Humidity 88%
Rainfall 0.00 in
Snow Depth Not available.
6:25 AM 8:00 PM
Waxing Crescent, 3% visible
METAR KROC 230454Z 26007KT 10SM FEW090 17/14 A2980 RMK AO2 SLP089 T01720144 402940172 $

Get Your Daily Forecast Email!

Thanks for signing up!

Be on the lookout for a verification email in your inbox.

You'll start receiving severe weather alerts in your inbox..

×

10-Day Weather Forecast

Almanac

Astronomy

Aug. 23, 2017 Rise Set
Actual Time
Civil Twilight
Nautical Twilight
Astronomical Twilight
Moon
Length of Visible Light
Length of Day
Tomorrow will be .
, % of the Moon is Illuminated

Today's Extremes

State Highs State Lows

Community

WunderPhotos

Category 6

Welcome to Category 6. This is the collective home for Weather Underground's featured writeups by Dr. Jeff Masters (right), Bob Henson (left), Chris Burt, and other regular contributors.

Nearby

Air Quality

  Air Quality AQ Index Pollutant
Not available.

Snow Depth

Station Depth Elevation

Earthquake Activity

City Distance Mag. Time & Date
Minimum magnitude displayed is 2.5.

Coastal Water Temperatures

Place Temperature

Stations

Nearby Weather Stations

Station Location Temp. Windchill Dew Point Humidity Wind Precip. Elev Updated Type
                   

Watches & Warnings

Beach Hazard Statement
Issued: 10:05 PM EDT Aug. 22, 2017 – National Weather Service

... Beach hazards statement in effect from 6 am EDT Wednesday
through Wednesday evening...

The National Weather Service in Buffalo has issued a beach
hazards statement... which is in effect from 6 am EDT Wednesday
through Wednesday evening.

* Locations... beaches of Monroe County.

* Timing... from late tonight through late Wednesday evening.

* Impacts... strong currents and dangerous swimming conditions.

Precautionary/preparedness actions...

A beach hazards statement is issued when there is a high swim
risk. This means life threatening waves and currents are
expected. Stay out of the water and stay away from dangerous
areas like piers and breakwalls.